createdAt,value
2024-05-09T00:04:35.990Z,23.37
2024-05-09T00:09:40.978Z,23.35
2024-05-09T00:14:48.529Z,23.37
2024-05-09T00:19:53.448Z,23.38
2024-05-09T00:24:58.376Z,23.36
2024-05-09T00:30:07.318Z,23.35
2024-05-09T00:35:12.468Z,23.37
2024-05-09T00:40:26.523Z,23.37
2024-05-09T00:45:38.952Z,23.37
2024-05-09T00:50:45.318Z,23.38
2024-05-09T00:55:50.598Z,23.37
2024-05-09T01:00:59.287Z,23.38
2024-05-09T01:06:04.370Z,23.38
2024-05-09T01:11:09.395Z,23.37
2024-05-09T01:16:17.064Z,23.35
2024-05-09T01:21:22.021Z,23.36
2024-05-09T01:26:29.637Z,23.37
2024-05-09T01:31:34.656Z,23.36
2024-05-09T01:36:39.604Z,23.36
2024-05-09T01:41:47.174Z,23.36
2024-05-09T01:46:52.145Z,23.36
2024-05-09T01:51:57.075Z,23.35
2024-05-09T01:57:04.605Z,23.37
2024-05-09T02:02:10.159Z,23.35
2024-05-09T02:07:15.212Z,23.35
2024-05-09T02:12:22.858Z,23.35
2024-05-09T02:17:27.962Z,23.32
2024-05-09T02:22:32.906Z,23.32
2024-05-09T02:27:40.378Z,23.34
2024-05-09T02:32:45.674Z,23.34
2024-05-09T02:37:50.832Z,23.32
2024-05-09T02:42:58.367Z,23.31
2024-05-09T02:48:03.467Z,23.30
2024-05-09T02:53:09.240Z,23.31
2024-05-09T02:58:17.538Z,23.29
2024-05-09T03:03:22.615Z,23.32
2024-05-09T03:08:28.160Z,23.31
2024-05-09T03:13:35.688Z,23.30
2024-05-09T03:18:41.616Z,23.30
2024-05-09T03:23:46.881Z,23.28
2024-05-09T03:28:54.564Z,23.27
2024-05-09T03:33:59.595Z,23.27
2024-05-09T03:39:04.623Z,23.26
2024-05-09T03:44:12.317Z,23.28
2024-05-09T03:49:18.056Z,23.26
2024-05-09T03:54:24.815Z,23.26
2024-05-09T03:59:32.507Z,23.25
2024-05-09T04:04:37.735Z,23.23
2024-05-09T04:09:42.748Z,23.22
2024-05-09T04:14:50.263Z,23.22
2024-05-09T04:19:55.367Z,23.23
2024-05-09T04:25:00.335Z,23.22
2024-05-09T04:30:15.285Z,23.24
2024-05-09T04:35:24.167Z,23.20
2024-05-09T04:40:34.060Z,23.20
2024-05-09T04:45:43.920Z,23.20
2024-05-09T04:50:48.827Z,23.20
2024-05-09T04:55:53.977Z,23.18
2024-05-09T05:01:01.580Z,23.20
2024-05-09T05:06:06.721Z,23.19
2024-05-09T05:11:11.663Z,23.19
2024-05-09T05:16:19.287Z,23.23
2024-05-09T05:21:24.368Z,23.23
2024-05-09T05:26:29.428Z,23.22
2024-05-09T05:31:37.031Z,23.19
2024-05-09T05:36:41.998Z,23.19
2024-05-09T05:41:46.905Z,23.18
2024-05-09T05:46:54.432Z,23.18
2024-05-09T05:51:59.352Z,23.16
2024-05-09T05:57:04.234Z,23.14
2024-05-09T06:02:13.898Z,23.16
2024-05-09T06:07:18.880Z,23.16
2024-05-09T06:12:23.881Z,23.17
2024-05-09T06:17:31.754Z,23.12
2024-05-09T06:22:36.756Z,23.11
2024-05-09T06:27:42.712Z,23.12
2024-05-09T06:32:50.310Z,23.15
2024-05-09T06:37:55.482Z,23.16
2024-05-09T06:43:00.442Z,23.18
2024-05-09T06:48:09.467Z,23.18
2024-05-09T06:53:17.161Z,23.14
2024-05-09T06:58:22.221Z,23.17
2024-05-09T07:03:30.578Z,23.15
2024-05-09T07:08:35.738Z,23.16
2024-05-09T07:13:40.684Z,23.14
2024-05-09T07:18:49.837Z,23.14
2024-05-09T07:23:54.984Z,23.13
2024-05-09T07:28:59.957Z,23.14
2024-05-09T07:34:07.580Z,23.13
2024-05-09T07:39:12.573Z,23.14
2024-05-09T07:44:17.567Z,23.18
2024-05-09T07:54:33.245Z,23.19
2024-05-09T07:59:38.288Z,23.16
2024-05-09T08:04:45.903Z,23.17
2024-05-09T08:09:50.998Z,23.16
2024-05-09T08:14:56.471Z,23.17
2024-05-09T08:20:05.660Z,23.17
2024-05-09T08:25:13.457Z,23.17
2024-05-09T08:30:25.268Z,23.18
2024-05-09T08:35:40.135Z,23.18
2024-05-09T08:40:45.385Z,23.19
2024-05-09T08:45:52.322Z,23.21
2024-05-09T08:51:01.617Z,23.23
2024-05-09T08:56:07.061Z,23.20
2024-05-09T09:01:12.461Z,23.22
2024-05-09T09:06:24.373Z,23.24
2024-05-09T09:11:29.294Z,23.24
2024-05-09T09:16:35.697Z,23.26
2024-05-09T09:21:43.293Z,23.28
2024-05-09T09:26:48.259Z,23.31
2024-05-09T09:32:00.961Z,23.30
2024-05-09T09:37:10.138Z,23.33
2024-05-09T09:42:18.231Z,23.34
2024-05-09T09:47:23.813Z,23.37
2024-05-09T09:52:31.755Z,23.37
2024-05-09T09:57:38.263Z,23.37
2024-05-09T10:02:43.260Z,23.37
2024-05-09T10:07:50.895Z,23.37
2024-05-09T10:13:00.942Z,23.38
2024-05-09T10:18:09.484Z,23.39
2024-05-09T10:23:30.361Z,23.40
2024-05-09T10:28:37.003Z,23.40
2024-05-09T10:33:42.919Z,23.40
2024-05-09T10:38:51.557Z,23.41
2024-05-09T10:43:56.462Z,23.40
2024-05-09T10:49:05.307Z,23.39
2024-05-09T10:54:14.806Z,23.42
2024-05-09T10:59:19.725Z,23.39
2024-05-09T11:04:24.678Z,23.41
2024-05-09T11:09:32.420Z,23.41
2024-05-09T11:14:37.593Z,23.43
2024-05-09T11:19:44.858Z,23.44
2024-05-09T11:24:52.717Z,23.43
2024-05-09T11:29:58.669Z,23.45
2024-05-09T11:35:03.565Z,23.45
2024-05-09T11:40:20.737Z,23.47
2024-05-09T11:45:29.878Z,23.44
2024-05-09T11:50:36.125Z,23.44
2024-05-09T11:55:44.150Z,23.45
2024-05-09T12:00:49.224Z,23.46
2024-05-09T12:05:54.314Z,23.45
2024-05-09T12:11:01.979Z,23.46
2024-05-09T12:16:07.373Z,23.45
2024-05-09T12:21:12.276Z,23.48
2024-05-09T12:26:19.855Z,23.47
2024-05-09T12:31:24.877Z,23.48
2024-05-09T12:36:29.879Z,23.48
2024-05-09T12:41:37.420Z,23.48
2024-05-09T12:46:42.396Z,23.47
2024-05-09T12:51:47.368Z,23.48
2024-05-09T12:56:54.971Z,23.50
2024-05-09T13:02:01.186Z,23.51
2024-05-09T13:07:07.944Z,23.49
2024-05-09T13:12:15.694Z,23.51
2024-05-09T13:17:20.751Z,23.51
2024-05-09T13:22:25.717Z,23.50
2024-05-09T13:27:33.314Z,23.52
2024-05-09T13:32:38.302Z,23.52
2024-05-09T13:37:43.238Z,23.52
2024-05-09T13:42:51.051Z,23.53
2024-05-09T13:47:56.991Z,23.53
2024-05-09T13:53:02.215Z,23.53
2024-05-09T13:58:10.393Z,23.52
2024-05-09T14:03:16.239Z,23.54
2024-05-09T14:08:22.788Z,23.55
2024-05-09T14:13:30.503Z,23.54
2024-05-09T14:18:35.611Z,23.55
2024-05-09T14:23:40.531Z,23.55
2024-05-09T14:28:48.058Z,23.53
2024-05-09T14:33:53.217Z,23.55
2024-05-09T14:38:58.303Z,23.55
2024-05-09T14:44:05.842Z,23.55
2024-05-09T14:49:12.471Z,23.56
2024-05-09T14:54:17.796Z,23.55
2024-05-09T14:59:25.343Z,23.55
2024-05-09T15:04:30.345Z,23.56
2024-05-09T15:09:38.486Z,23.55
2024-05-09T15:14:46.080Z,23.56
2024-05-09T15:19:51.172Z,23.56
2024-05-09T15:24:56.137Z,23.56
2024-05-09T15:30:06.933Z,23.57
2024-05-09T15:35:15.164Z,23.56
2024-05-09T15:40:30.438Z,23.57
2024-05-09T15:45:45.119Z,23.56
2024-05-09T15:50:50.223Z,23.57
2024-05-09T15:55:55.185Z,23.59
2024-05-09T16:01:02.826Z,23.55
2024-05-09T16:06:08.067Z,23.57
2024-05-09T16:11:13.201Z,23.60
2024-05-09T16:16:20.989Z,23.58
2024-05-09T16:21:25.954Z,23.59
2024-05-09T16:26:30.942Z,23.58
2024-05-09T16:31:38.547Z,23.59
2024-05-09T16:36:43.938Z,23.61
2024-05-09T16:41:48.944Z,23.60
2024-05-09T16:46:56.455Z,23.62
2024-05-09T16:52:01.614Z,23.59
2024-05-09T16:57:06.940Z,23.60
2024-05-09T17:02:14.728Z,23.62
2024-05-09T17:07:19.969Z,23.62
2024-05-09T17:12:25.163Z,23.61
2024-05-09T17:17:32.751Z,23.63
2024-05-09T17:22:37.825Z,23.60
2024-05-09T17:27:42.791Z,23.60
2024-05-09T17:32:50.372Z,23.61
2024-05-09T17:37:55.352Z,23.60
2024-05-09T17:43:00.325Z,23.61
2024-05-09T17:48:09.557Z,23.63
2024-05-09T17:53:14.954Z,23.61
2024-05-09T17:58:20.176Z,23.62
2024-05-09T18:03:28.154Z,23.62
2024-05-09T18:08:33.191Z,23.62
2024-05-09T18:13:38.080Z,23.62
2024-05-09T18:18:46.055Z,23.61
2024-05-09T18:23:52.144Z,23.60
2024-05-09T18:28:57.105Z,23.60
2024-05-09T18:34:05.731Z,23.60
2024-05-09T18:39:10.647Z,23.60
2024-05-09T18:44:15.546Z,23.60
2024-05-09T18:49:23.210Z,23.58
2024-05-09T18:54:28.534Z,23.57
2024-05-09T18:59:33.412Z,23.55
2024-05-09T19:04:41.034Z,23.54
2024-05-09T19:09:46.231Z,23.53
2024-05-09T19:14:51.144Z,23.54
2024-05-09T19:19:58.823Z,23.55
2024-05-09T19:25:03.839Z,23.54
2024-05-09T19:30:17.248Z,23.55
2024-05-09T19:35:29.299Z,23.54
2024-05-09T19:40:35.325Z,23.54
2024-05-09T19:45:40.796Z,23.55
2024-05-09T19:50:51.585Z,23.56
2024-05-09T19:55:58.371Z,23.56
2024-05-09T20:01:03.423Z,23.57
2024-05-09T20:06:11.122Z,23.58
2024-05-09T20:11:17.738Z,23.58
2024-05-09T20:16:22.918Z,23.57
2024-05-09T20:21:30.536Z,23.56
2024-05-09T20:26:35.448Z,23.57
2024-05-09T20:31:41.286Z,23.56
2024-05-09T20:36:48.975Z,23.58
2024-05-09T20:41:53.929Z,23.56
2024-05-09T20:46:58.842Z,23.58
2024-05-09T20:52:07.039Z,23.57
2024-05-09T20:57:12.084Z,23.56
2024-05-09T21:02:17.103Z,23.57
2024-05-09T21:07:24.795Z,23.58
2024-05-09T21:12:29.707Z,23.57
2024-05-09T21:17:34.691Z,23.56
2024-05-09T21:22:42.304Z,23.56
2024-05-09T21:27:47.313Z,23.55
2024-05-09T21:32:52.363Z,23.53
2024-05-09T21:37:59.972Z,23.51
2024-05-09T21:43:05.455Z,23.49
2024-05-09T21:48:11.290Z,23.49
2024-05-09T21:53:18.898Z,23.49
2024-05-09T21:58:24.229Z,23.46
2024-05-09T22:03:29.348Z,23.47
2024-05-09T22:08:36.988Z,23.46
2024-05-09T22:13:41.870Z,23.44
2024-05-09T22:18:46.882Z,23.42
2024-05-09T22:23:55.157Z,23.40
2024-05-09T22:29:00.033Z,23.41
2024-05-09T22:34:05.518Z,23.41
2024-05-09T22:39:13.147Z,23.40
2024-05-09T22:44:18.060Z,23.39
2024-05-09T22:49:22.979Z,23.40
2024-05-09T22:54:30.520Z,23.40
2024-05-09T22:59:35.459Z,23.40
2024-05-09T23:04:41.167Z,23.37
2024-05-09T23:09:50.405Z,23.38
2024-05-09T23:14:55.553Z,23.38
2024-05-09T23:20:00.572Z,23.37
2024-05-09T23:25:08.823Z,23.35
2024-05-09T23:30:21.859Z,23.35
2024-05-09T23:35:33.797Z,23.35
2024-05-09T23:40:42.454Z,23.34
2024-05-09T23:45:48.221Z,23.33
2024-05-09T23:50:53.131Z,23.32
2024-05-09T23:56:00.692Z,23.33
